Latest Coastal Weather Observations for Townsville

IDQ60701

Issued at 8:45 pm EST Sunday 20 April 2014 (issued every 10 minutes, with the page automatically refreshed every 10 minutes)

About coastal observations | Map of coastal stations | Coastal observations for QLD | Marine services | Other Formats
Station Details ID: 032040 Name: TOWNSVILLE AERO Lat: -19.25 Lon: 146.77 Height: 4.34 m
Data from the previous 72 hours. | See also: Recent months at Townsville
Date/Time
EST
Temp

°C
Wind Pressure Rain
since 9am
mm
Weather Cloud Vis
km
Sea
Height
m
Swell
Dir
 
Speed
knots
Gust
knots
hPa Trend Height
m
Period
s
Dir
20/08:30pm 23.6 SE 6 7 1016.6 - 0.0 - Mostly clear 10 - - - -
20/08:00pm 23.5 SE 5 7 1016.3 - 0.0 - Mostly clear 10 - - - -
20/07:30pm 23.8 SE 7 8 1016.0 - 0.0 - Mostly clear 10 - - - -
20/07:00pm 24.5 ESE 7 8 1015.7 - 0.0 - Mostly clear 10 - - - -
20/06:30pm 23.9 E 5 6 1015.3 - 0.0 - Mostly clear 10 - - - -
20/06:00pm 24.7 E 7 10 1015.0 R 0.0 Fine Mostly clear 50 - - - -
20/05:30pm 26.1 ENE 11 15 1014.9 - 0.0 - Mostly clear 10 - - - -
20/05:00pm 26.7 ENE 12 15 1014.5 - 0.0 - Mostly clear 10 - - - -
20/04:30pm 27.2 ENE 12 16 1014.1 - 0.0 - Mostly clear 10 - - - -
20/04:00pm 27.4 ENE 13 16 1013.9 - 0.0 - Mostly clear 10 - - - -
20/03:30pm 27.9 ENE 13 16 1013.7 - 0.0 - Mostly clear 10 - - - -
20/03:00pm 28.2 ENE 12 17 1013.5 R 0.0 Fine Mostly clear 50 - - - -
20/02:30pm 28.0 ENE 12 16 1013.6 - 0.0 - Mostly clear 10 - - - -
20/02:00pm 28.3 ENE 12 16 1013.9 - 0.0 - Mostly clear 10 - - - -
20/01:30pm 28.4 ENE 11 16 1014.0 - 0.0 - Mostly clear 10 - - - -
20/01:00pm 28.0 NE 10 15 1014.4 - 0.0 - Mostly clear 10 - - - -
20/12:30pm 28.1 NE 11 15 1014.9 - 0.0 - Mostly clear 10 - - - -
20/12:00pm 27.8 NE 10 15 1015.3 R 0.0 Fine Partly cloudy 45 - - - -
20/11:30am 28.1 E 10 14 1015.8 - 0.0 - Mostly clear 10 - - - -
20/11:00am 27.9 ESE 9 13 1016.1 - 0.0 - Mostly clear 10 - - - -
20/10:30am 27.3 E 9 12 1016.2 - 0.0 - Mostly clear 10 - - - -
20/10:00am 27.2 E 7 11 1016.4 - 0.0 - Mostly clear 10 - - - -
20/09:30am 26.7 SE 7 10 1016.4 - 0.0 - Mostly clear 10 - - - -
20/09:00am 26.3 SE 8 10 1016.1 R 0.0 Fine Partly cloudy 40 - - - -
20/08:30am 25.1 SSE 7 8 1016.0 - 0.0 - Mostly clear 10 - - - -
20/08:00am 24.0 SSE 5 6 1015.8 - 0.0 - Mostly clear 10 - - - -
20/07:30am 22.4 S 5 6 1015.5 - 0.0 - Mostly clear 10 - - - -
20/07:00am 21.4 S 5 5 1015.1 - 0.0 - Mostly clear 10 - - - -
20/06:30am 20.9 S 6 6 1014.8 - 0.0 - Mostly clear 10 - - - -
20/06:00am 21.1 SE 1 4 1014.4 R 0.0 Fine Mostly cloudy 35 - - - -
20/05:30am 21.4 SE 5 6 1014.2 - 0.0 - - 10 - - - -
20/05:00am 21.4 SE 6 7 1014.0 - 0.0 - - 10 - - - -
20/04:30am 22.0 SE 6 7 1013.9 - 0.0 - - 10 - - - -
20/04:00am 22.0 SE 7 7 1013.7 - 0.0 - - 10 - - - -
20/03:30am 22.0 SE 6 7 1013.8 - 0.0 - - 10 - - - -
20/03:00am 22.0 SE 5 6 1013.8 - 0.0 - - 10 - - - -
20/02:30am 22.4 SE 6 7 1014.0 - 0.0 - Partly cloudy 10 - - - -
20/02:00am 22.4 SE 6 7 1014.1 - 0.0 - - 10 - - - -
20/01:30am 22.5 SE 5 6 1014.2 - 0.0 - - 10 - - - -
20/01:00am 23.1 SE 5 6 1014.6 - 0.0 - Partly cloudy 10 - - - -
20/12:30am 22.9 SE 5 6 1014.9 - 0.0 - - 10 - - - -
20/12:00am 23.5 SE 5 6 1014.9 - 0.0 - Partly cloudy 10 - - - -
 
Date/Time
EST
Temp

°C
Wind Pressure Rain
since 9am
mm
Weather Cloud Vis
km
Sea
Height
m
Swell
Dir
 
Speed
knots
Gust
knots
hPa Trend Height
m
Period
s
Dir
19/11:30pm 23.4 SE 5 6 1015.2 - 0.0 - Partly cloudy 10 - - - -
19/11:00pm 23.3 SE 5 6 1015.3 - 0.0 - - 10 - - - -
19/10:30pm 23.8 ESE 4 6 1015.4 - 0.0 - Mostly clear 10 - - - -
19/10:00pm 23.7 SE 5 6 1015.5 - 0.0 - Mostly clear 10 - - - -
19/09:30pm 24.1 SE 4 5 1015.6 - 0.0 - Mostly clear 10 - - - -
19/09:00pm 24.0 E 5 6 1015.4 F 0.0 Fine Mostly cloudy 35 - - - -
19/08:30pm 24.3 ENE 5 6 1015.3 - 0.0 - Mostly clear 10 - - - -
19/08:00pm 24.3 E 6 7 1015.0 - 0.0 - Mostly clear 10 - - - -
19/07:30pm 24.6 E 7 8 1014.7 - 0.0 - Mostly clear 10 - - - -
19/07:00pm 25.2 ENE 7 9 1014.4 - 0.0 - Mostly clear 10 - - - -
19/06:30pm 25.3 ENE 7 9 1014.2 - 0.0 - Mostly clear 10 - - - -
19/06:00pm 25.4 ENE 8 9 1013.8 F 0.0 Fine Mostly cloudy 35 - - - -
19/05:30pm 26.2 ENE 8 10 1013.7 - 0.0 - Mostly clear 10 - - - -
19/05:00pm 26.5 NE 10 13 1013.5 - 0.0 - Mostly clear 10 - - - -
19/04:30pm 26.7 NE 11 14 1013.4 - 0.0 - Mostly clear 10 - - - -
19/04:00pm 27.1 ENE 11 14 1013.3 - 0.0 - Mostly clear 10 - - - -
19/03:30pm 28.2 ENE 12 17 1013.3 - 0.0 - Mostly clear 10 - - - -
19/03:00pm 27.9 NE 11 14 1013.3 R 0.0 Fine Partly cloudy 35 - - - -
19/02:30pm 28.3 NE 12 16 1013.6 - 0.0 - Mostly clear 10 - - - -
19/02:00pm 28.5 NE 10 15 1014.0 - 0.0 - Mostly clear 10 - - - -
19/01:30pm 28.1 NE 10 15 1014.2 - 0.0 - Mostly clear 10 - - - -
19/01:00pm 28.3 ENE 11 15 1014.5 - 0.0 - Mostly clear 10 - - - -
19/12:30pm 28.7 ENE 10 14 1014.9 - 0.0 - Mostly clear 10 - - - -
19/12:00pm 28.3 ENE 10 16 1015.2 S 0.0 Fine Mostly cloudy 35 - - - -
19/11:30am 28.4 ENE 11 15 1015.8 - 0.0 - Mostly clear 10 - - - -
19/11:00am 28.3 ENE 11 16 1016.2 - 0.0 - Mostly clear 10 - - - -
19/10:30am 27.5 ENE 11 17 1016.5 - 0.0 - Partly cloudy 10 - - - -
19/10:00am 28.0 ENE 11 15 1016.6 - 0.0 - Partly cloudy 10 - - - -
19/09:30am 27.9 ENE 11 14 1016.6 - 0.0 - Partly cloudy 10 - - - -
19/09:00am 27.3 ESE 7 10 1016.3 F 0.0 Haze Partly cloudy 30 - - - -
19/08:30am 26.2 SE 7 8 1016.4 - 0.0 - Partly cloudy 10 - - - -
19/08:00am 25.5 ESE 5 7 1016.1 - 0.0 - Partly cloudy 10 - - - -
19/07:30am 25.6 ENE 8 12 1015.8 - 0.0 - Partly cloudy 10 - - - -
19/07:00am 23.6 S 6 8 1015.7 - 0.0 - Partly cloudy 10 - - - -
19/06:30am 23.0 S 5 6 1015.4 - 0.0 - Partly cloudy 10 - - - -
19/06:00am 23.5 SSE 2 5 1014.9 R 0.0 Haze Mostly cloudy 30 - - - -
19/05:30am 23.1 SE 1 3 1014.7 - 0.0 - - 10 - - - -
19/05:00am 23.3 S 4 5 1014.6 - 0.0 - Partly cloudy 10 - - - -
19/04:30am 23.6 SSW 3 5 1014.4 - 0.0 - Partly cloudy 10 - - - -
19/04:00am 23.8 S 2 4 1014.2 - 0.0 - Partly cloudy 10 - - - -
19/03:30am 23.8 CALM 0 0 1014.2 - 0.0 - Partly cloudy 10 - - - -
19/03:00am 23.7 S 3 4 1014.1 - 0.0 - Partly cloudy 10 - - - -
19/02:30am 23.9 CALM 0 0 1014.5 - 0.0 - - 10 - - - -
19/02:00am 23.8 CALM 0 0 1014.8 - 0.0 - Partly cloudy 10 - - - -
19/01:30am 23.6 NNE 2 4 1015.1 - 0.0 - - 10 - - - -
19/01:00am 23.9 NNE 5 6 1015.4 - 0.0 - - 10 - - - -
19/12:30am 24.4 NNE 5 7 1015.7 - 0.0 - - 10 - - - -
19/12:00am 24.4 N 5 6 1015.8 - 0.0 - Mostly clear 10 - - - -
 
Date/Time
EST
Temp

°C
Wind Pressure Rain
since 9am
mm
Weather Cloud Vis
km
Sea
Height
m
Swell
Dir
 
Speed
knots
Gust
knots
hPa Trend Height
m
Period
s
Dir
18/11:30pm 24.8 N 5 6 1016.0 - 0.0 - Partly cloudy 10 - - - -
18/11:00pm 24.1 NE 5 7 1016.2 - 0.0 - - 10 - - - -
18/10:30pm 24.4 NE 7 8 1016.2 - 0.0 - Mostly clear 10 - - - -
18/10:00pm 24.9 NNE 7 8 1016.4 - 0.0 - Mostly clear 10 - - - -
18/09:30pm 25.1 NE 7 10 1016.3 - 0.0 - Mostly clear 10 - - - -
18/09:00pm 25.3 ENE 6 8 1016.3 R 0.0 Haze Mostly clear 25 - - - -
18/08:30pm 24.7 NE 6 7 1016.1 - 0.0 - Mostly clear 10 - - - -
18/08:00pm 24.9 NNE 5 7 1015.7 - 0.0 - Mostly clear 10 - - - -
18/07:30pm 24.8 NE 6 7 1015.4 - 0.0 - Mostly clear 10 - - - -
18/07:00pm 25.1 ENE 6 8 1015.0 - 0.0 - Mostly clear 10 - - - -
18/06:30pm 25.5 ENE 7 9 1014.4 - 0.0 - Mostly clear 10 - - - -
18/06:00pm 25.6 ENE 8 10 1014.2 R 0.0 Haze Mostly clear 25 - - - -
18/05:30pm 26.2 ENE 10 14 1014.0 - 0.0 - Mostly clear 10 - - - -
18/05:00pm 27.3 NE 10 15 1013.8 - 0.0 - Mostly clear 10 - - - -
18/04:30pm 27.8 NE 12 15 1013.7 - 0.0 - Mostly clear 10 - - - -
18/04:00pm 27.8 ENE 11 16 1013.4 - 0.0 - Mostly clear 10 - - - -
18/03:30pm 27.8 ENE 11 15 1013.2 - 0.0 - Mostly clear 10 - - - -
18/03:00pm 28.1 NE 13 16 1013.1 R 0.0 Distant precip. Partly cloudy 25 - - - -
18/02:30pm 28.5 ENE 13 16 1013.3 - 0.0 - Mostly clear 10 - - - -
18/02:00pm 28.4 ENE 13 15 1013.5 - 0.0 - Mostly clear 10 - - - -
18/01:30pm 28.4 ENE 13 16 1013.7 - 0.0 - Mostly clear 10 - - - -
18/01:00pm 28.6 ENE 12 17 1014.0 - 0.0 - Partly cloudy 10 - - - -
18/12:30pm 28.6 ENE 13 17 1014.3 - 0.0 - Partly cloudy 10 - - - -
18/12:00pm 28.7 ENE 11 15 1014.5 F 0.0 Distant precip. Mostly cloudy 25 - - - -
18/11:30am 29.0 ENE 10 16 1015.0 - 0.0 - Mostly clear 10 - - - -
18/11:00am 28.0 ESE 9 12 1015.4 - 0.0 - Mostly clear 10 - - - -
18/10:30am 28.2 E 9 12 1015.8 - 0.0 - Mostly clear 10 - - - -
18/10:00am 27.7 E 8 11 1015.9 - 0.0 - Mostly clear 10 - - - -
18/09:30am 27.4 ESE 7 10 1016.1 - 0.0 - Mostly clear 10 - - - -
18/09:00am 27.0 ESE 7 9 1015.9 F 0.0 Haze Partly cloudy 30 - - - -
18/08:30am 26.4 SSE 6 7 1015.8 - 0.0 - Partly cloudy 10 - - - -
18/08:00am 24.8 SSE 5 7 1015.6 - 0.0 - Partly cloudy 10 - - - -
18/07:30am 24.4 SSE 6 8 1015.4 - 0.0 - Mostly clear 10 - - - -
18/07:00am 23.6 SE 5 7 1015.2 - 0.0 - Mostly clear 10 - - - -
18/06:30am 22.5 S 4 5 1015.0 - 0.0 - Mostly clear 10 - - - -
18/06:00am 22.7 SE 5 7 1014.6 R 0.0 Distant precip. Mostly clear 30 - - - -
18/05:30am 23.1 SSE 7 8 1014.5 - 0.0 - - 10 - - - -
18/05:00am 23.2 SSE 6 6 1014.2 - 0.0 - - 10 - - - -
18/04:30am 23.1 SSE 6 6 1014.0 - 0.0 - - 10 - - - -
18/04:00am 23.4 SSE 6 7 1014.2 - 0.0 - - 10 - - - -
18/03:30am 23.5 SSE 6 7 1014.2 - 0.0 - - 10 - - - -
18/03:00am 23.8 SSE 5 6 1014.0 - 0.0 - Partly cloudy 10 - - - -
18/02:30am 23.9 SSE 6 7 1014.4 - 0.0 - Partly cloudy 10 - - - -
18/02:00am 24.0 SSE 4 5 1014.7 - 0.0 - Partly cloudy 10 - - - -
18/01:30am 24.3 SE 4 4 1014.8 - 0.0 - Partly cloudy 10 - - - -
18/01:00am 24.6 E 3 5 1015.3 - 0.0 - Partly cloudy 10 - - - -
18/12:30am 24.9 ENE 4 6 1015.7 - 0.0 - Partly cloudy 10 - - - -
18/12:00am 25.4 E 6 8 1015.9 - 0.0 - Mostly clear 10 - - - -
 
Date/Time
EST
Temp

°C
Wind Pressure Rain
since 9am
mm
Weather Cloud Vis
km
Sea
Height
m
Swell
Dir
 
Speed
knots
Gust
knots
hPa Trend Height
m
Period
s
Dir
17/11:30pm 24.6 E 5 7 1016.2 - 0.0 - - 10 - - - -
17/11:00pm 25.1 E 7 9 1016.4 - 0.0 - - 10 - - - -
17/10:30pm 25.5 E 7 9 1016.5 - 0.0 - Partly cloudy 10 - - - -
17/10:00pm 25.5 ENE 7 9 1016.5 - 0.0 - Partly cloudy 10 - - - -
17/09:30pm 25.5 E 7 9 1016.5 - 0.0 - Partly cloudy 10 - - - -
17/09:00pm 25.4 E 7 9 1016.3 - 0.0 - Mostly clear 10 - - - -

Other Formats:

Comma delimited format used in spreadsheet applications
http://www.bom.gov.au/fwo/IDQ60701/IDQ60701.94294.axf

JavaScript Object Notation format (JSON) in row-major order
http://www.bom.gov.au/fwo/IDQ60701/IDQ60701.94294.json